createdAt,value
2023-02-12T00:01:37.132Z,66.17
2023-02-12T00:04:04.308Z,65.75
2023-02-12T00:06:31.319Z,66.25
2023-02-12T00:08:58.718Z,66.43
2023-02-12T00:11:27.478Z,66.26
2023-02-12T00:13:54.445Z,66.83
2023-02-12T00:16:22.748Z,66.12
2023-02-12T00:18:51.477Z,66.14
2023-02-12T00:21:18.506Z,66.21
2023-02-12T00:23:45.517Z,66.29
2023-02-12T00:26:13.942Z,66.93
2023-02-12T00:28:40.876Z,67.80
2023-02-12T00:31:09.134Z,69.04
2023-02-12T00:33:36.140Z,68.22
2023-02-12T00:36:03.261Z,68.11
2023-02-12T00:38:30.272Z,68.38
2023-02-12T00:40:57.153Z,69.24
2023-02-12T00:43:24.122Z,69.04
2023-02-12T00:45:51.082Z,68.80
2023-02-12T00:48:18.193Z,68.97
2023-02-12T00:50:46.231Z,69.87
2023-02-12T00:53:13.208Z,70.96
2023-02-12T00:55:40.349Z,71.41
2023-02-12T00:58:07.338Z,71.70
2023-02-12T01:00:34.334Z,70.79
2023-02-12T01:03:01.362Z,70.09
2023-02-12T01:05:28.200Z,70.42
2023-02-12T01:07:55.135Z,70.75
2023-02-12T01:10:22.339Z,70.30
2023-02-12T01:12:49.680Z,70.23
2023-02-12T01:15:17.257Z,70.54
2023-02-12T01:17:44.155Z,70.49
2023-02-12T01:20:12.910Z,70.42
2023-02-12T01:22:40.214Z,70.41
2023-02-12T01:25:07.345Z,70.51
2023-02-12T01:27:34.240Z,70.33
2023-02-12T01:30:01.172Z,70.51
2023-02-12T01:32:28.106Z,70.59
2023-02-12T01:34:55.140Z,71.51
2023-02-12T01:37:21.973Z,71.43
2023-02-12T01:39:48.801Z,71.10
2023-02-12T01:42:18.794Z,71.82
2023-02-12T01:45:05.367Z,72.43
2023-02-12T01:47:32.626Z,72.25
2023-02-12T01:49:59.478Z,72.24
2023-02-12T01:52:30.672Z,71.43
2023-02-12T01:54:59.690Z,71.36
2023-02-12T01:57:28.728Z,71.88
2023-02-12T01:59:56.647Z,73.52
2023-02-12T02:02:23.711Z,73.82
2023-02-12T02:04:53.676Z,73.88
2023-02-12T02:07:20.371Z,72.67
2023-02-12T02:09:49.957Z,72.37
2023-02-12T02:12:19.715Z,73.33
2023-02-12T02:14:47.732Z,73.98
2023-02-12T02:17:17.823Z,73.54
2023-02-12T02:19:47.558Z,73.42
2023-02-12T02:22:14.697Z,73.02
2023-02-12T02:24:44.614Z,73.84
2023-02-12T02:27:15.764Z,74.43
2023-02-12T02:29:44.297Z,74.50
2023-02-12T02:32:17.030Z,74.27
2023-02-12T02:34:50.335Z,74.13
2023-02-12T02:37:17.416Z,74.28
2023-02-12T02:39:49.058Z,73.77
2023-02-12T02:42:16.177Z,73.31
2023-02-12T02:44:46.016Z,73.00
2023-02-12T02:47:16.696Z,72.88
2023-02-12T02:49:46.642Z,73.57
2023-02-12T02:52:16.737Z,74.36
2023-02-12T02:54:47.398Z,75.16
2023-02-12T02:57:17.130Z,74.24
2023-02-12T02:59:47.276Z,74.08
2023-02-12T03:02:15.959Z,73.82
2023-02-12T03:04:46.050Z,74.66
2023-02-12T03:07:15.940Z,77.07
2023-02-12T03:09:45.832Z,76.27
2023-02-12T03:12:18.893Z,75.30
2023-02-12T03:14:49.229Z,73.57
2023-02-12T03:17:18.866Z,74.99
2023-02-12T03:19:47.714Z,74.59
2023-02-12T03:22:17.552Z,74.39
2023-02-12T03:24:46.586Z,74.23
2023-02-12T03:27:13.661Z,74.30
2023-02-12T03:29:40.379Z,74.66
2023-02-12T03:32:10.547Z,74.54
2023-02-12T03:34:40.301Z,75.92
2023-02-12T03:37:08.472Z,75.05
2023-02-12T03:39:35.544Z,74.45
2023-02-12T03:42:05.282Z,74.32
2023-02-12T03:44:35.050Z,74.69
2023-02-12T03:47:06.115Z,75.28
2023-02-12T03:49:35.831Z,74.85
2023-02-12T03:52:03.820Z,74.79
2023-02-12T03:54:33.518Z,74.11
2023-02-12T03:57:03.889Z,73.98
2023-02-12T03:59:30.942Z,74.07
2023-02-12T04:01:58.840Z,73.71
2023-02-12T04:04:26.726Z,73.20
2023-02-12T04:06:54.535Z,73.22
2023-02-12T04:09:22.402Z,73.26
2023-02-12T04:11:50.554Z,73.35
2023-02-12T04:14:20.317Z,73.14
2023-02-12T04:16:51.750Z,72.68
2023-02-12T04:19:25.564Z,72.19
2023-02-12T04:21:53.653Z,71.87
2023-02-12T04:24:23.408Z,71.80
2023-02-12T04:26:53.468Z,71.80
2023-02-12T04:29:20.750Z,71.98
2023-02-12T04:31:50.846Z,71.94
2023-02-12T04:34:26.615Z,71.98
2023-02-12T04:36:53.757Z,72.14
2023-02-12T04:39:22.713Z,73.29
2023-02-12T04:41:49.798Z,72.99
2023-02-12T04:44:18.784Z,72.68
2023-02-12T04:46:45.626Z,72.55
2023-02-12T04:49:14.479Z,72.60
2023-02-12T04:51:41.184Z,72.40
2023-02-12T04:54:07.895Z,72.16
2023-02-12T04:56:34.670Z,72.68
2023-02-12T04:59:01.488Z,71.96
2023-02-12T05:01:31.266Z,72.31
2023-02-12T05:03:58.227Z,72.29
2023-02-12T05:06:24.966Z,72.96
2023-02-12T05:08:53.159Z,72.27
2023-02-12T05:11:20.385Z,71.95
2023-02-12T05:13:48.801Z,72.08
2023-02-12T05:16:15.878Z,72.77
2023-02-12T05:18:42.819Z,73.98
2023-02-12T05:21:09.668Z,73.85
2023-02-12T05:23:38.351Z,72.93
2023-02-12T05:26:07.642Z,72.64
2023-02-12T05:28:34.843Z,72.79
2023-02-12T05:31:05.147Z,73.39
2023-02-12T05:33:32.160Z,73.28
2023-02-12T05:36:02.068Z,72.50
2023-02-12T05:38:28.789Z,72.55
2023-02-12T05:41:01.442Z,72.24
2023-02-12T05:43:28.182Z,72.20
2023-02-12T05:45:55.324Z,72.49
2023-02-12T05:48:22.172Z,72.47
2023-02-12T05:50:49.700Z,71.49
2023-02-12T05:53:17.367Z,71.10
2023-02-12T05:55:44.090Z,71.54
2023-02-12T05:58:10.808Z,71.43
2023-02-12T06:00:37.657Z,71.30
2023-02-12T06:03:04.439Z,71.43
2023-02-12T06:05:31.246Z,71.57
2023-02-12T06:07:58.100Z,71.81
2023-02-12T06:10:24.796Z,71.63
2023-02-12T06:12:57.255Z,71.35
2023-02-12T06:15:23.944Z,71.14
2023-02-12T06:17:50.657Z,71.91
2023-02-12T06:20:17.461Z,71.65
2023-02-12T06:22:44.268Z,70.89
2023-02-12T06:25:11.574Z,70.94
2023-02-12T06:27:38.375Z,71.32
2023-02-12T06:30:05.541Z,71.22
2023-02-12T06:32:32.722Z,71.08
2023-02-12T06:34:59.458Z,72.04
2023-02-12T06:37:26.248Z,72.16
2023-02-12T06:39:53.413Z,72.10
2023-02-12T06:42:20.114Z,71.47
2023-02-12T06:44:47.869Z,71.31
2023-02-12T06:47:14.716Z,72.03
2023-02-12T06:49:41.467Z,73.25
2023-02-12T06:52:08.167Z,73.94
2023-02-12T06:54:34.944Z,74.78
2023-02-12T06:57:01.665Z,74.79
2023-02-12T06:59:28.485Z,73.89
2023-02-12T07:01:55.219Z,73.60
2023-02-12T07:04:21.903Z,75.15
2023-02-12T07:06:49.210Z,75.58
2023-02-12T07:09:16.010Z,75.36
2023-02-12T07:11:42.789Z,75.76
2023-02-12T07:14:13.836Z,75.48
2023-02-12T07:16:40.529Z,75.20
2023-02-12T07:19:07.279Z,75.90
2023-02-12T07:21:34.040Z,76.53
2023-02-12T07:24:03.795Z,77.36
2023-02-12T07:26:30.509Z,77.27
2023-02-12T07:28:57.994Z,78.43
2023-02-12T07:31:30.625Z,77.81
2023-02-12T07:33:58.587Z,78.36
2023-02-12T07:36:26.442Z,78.61
2023-02-12T07:38:56.869Z,78.02
2023-02-12T07:41:25.030Z,77.98
2023-02-12T07:43:55.103Z,78.56
2023-02-12T07:46:30.573Z,77.14
2023-02-12T07:49:01.784Z,76.62
2023-02-12T07:51:28.864Z,76.55
2023-02-12T07:53:56.077Z,76.74
2023-02-12T07:56:24.532Z,77.24
2023-02-12T07:58:52.468Z,76.17
2023-02-12T08:01:22.241Z,75.19
2023-02-12T08:03:49.615Z,74.15
2023-02-12T08:06:19.346Z,74.18
2023-02-12T08:08:46.964Z,73.86
2023-02-12T08:11:14.686Z,74.53
2023-02-12T08:13:41.733Z,74.73
2023-02-12T08:16:10.574Z,73.73
2023-02-12T08:18:37.368Z,72.53
2023-02-12T08:21:06.781Z,72.81
2023-02-12T08:23:34.222Z,73.70
2023-02-12T08:26:04.044Z,74.60
2023-02-12T08:28:31.005Z,73.96
2023-02-12T08:31:02.227Z,73.95
2023-02-12T08:33:29.054Z,73.61
2023-02-12T08:36:02.265Z,74.94
2023-02-12T08:38:29.138Z,75.30
2023-02-12T08:40:56.552Z,75.79
2023-02-12T08:43:23.342Z,76.14
2023-02-12T08:45:50.495Z,75.62
2023-02-12T08:48:19.787Z,74.91
2023-02-12T08:50:47.011Z,77.68
2023-02-12T08:53:13.791Z,76.80
2023-02-12T08:55:40.567Z,77.38
2023-02-12T08:58:07.356Z,77.54
2023-02-12T09:00:34.165Z,77.58
2023-02-12T09:03:00.921Z,77.50
2023-02-12T09:05:27.643Z,78.20
2023-02-12T09:07:54.439Z,78.73
2023-02-12T09:10:22.189Z,78.04
2023-02-12T09:12:49.005Z,77.58
2023-02-12T09:15:15.838Z,78.46
2023-02-12T09:17:43.878Z,77.86
2023-02-12T09:20:11.313Z,77.54
2023-02-12T09:22:38.930Z,77.48
2023-02-12T09:25:07.062Z,77.47
2023-02-12T09:27:34.091Z,78.92
2023-02-12T09:30:03.966Z,79.70
2023-02-12T09:32:30.830Z,80.14
2023-02-12T09:35:00.710Z,80.85
2023-02-12T09:37:28.116Z,82.29
2023-02-12T09:39:58.075Z,81.83
2023-02-12T09:42:35.540Z,82.19
2023-02-12T09:45:02.810Z,83.22
2023-02-12T09:47:34.401Z,83.33
2023-02-12T09:50:04.472Z,82.31
2023-02-12T09:52:31.170Z,81.86
2023-02-12T09:54:58.657Z,81.09
2023-02-12T09:57:29.878Z,80.85
2023-02-12T09:59:58.686Z,79.95
2023-02-12T10:02:26.101Z,79.39
2023-02-12T10:05:01.607Z,79.54
2023-02-12T10:07:38.071Z,79.48
2023-02-12T10:10:08.167Z,80.10
2023-02-12T10:12:39.506Z,80.15
2023-02-12T10:15:06.603Z,80.86
2023-02-12T10:17:34.763Z,80.43
2023-02-12T10:20:04.630Z,80.08
2023-02-12T10:22:37.516Z,79.67
2023-02-12T10:25:10.770Z,80.06
2023-02-12T10:27:41.338Z,80.20
2023-02-12T10:30:15.469Z,80.04
2023-02-12T10:32:43.660Z,80.35
2023-02-12T10:35:13.857Z,79.63
2023-02-12T10:37:46.351Z,77.79
2023-02-12T10:40:16.503Z,77.07
2023-02-12T10:42:44.900Z,77.09
2023-02-12T10:45:14.297Z,76.95
2023-02-12T10:47:41.096Z,76.94
2023-02-12T10:50:16.866Z,76.42
2023-02-12T10:52:47.078Z,76.68
2023-02-12T10:55:16.967Z,75.49
2023-02-12T10:57:46.581Z,75.77
2023-02-12T11:00:25.641Z,75.63
2023-02-12T11:02:55.807Z,76.10
2023-02-12T11:05:24.442Z,76.47
2023-02-12T11:07:52.605Z,76.85
2023-02-12T11:10:22.865Z,76.99
2023-02-12T11:12:49.615Z,76.83
2023-02-12T11:15:17.784Z,77.05
2023-02-12T11:17:46.447Z,76.67
2023-02-12T11:20:17.121Z,76.73
2023-02-12T11:22:47.042Z,76.63
2023-02-12T11:25:17.214Z,75.83
2023-02-12T11:27:44.260Z,76.72
2023-02-12T11:30:11.432Z,76.51
2023-02-12T11:32:38.265Z,76.67
2023-02-12T11:35:06.826Z,76.79
2023-02-12T11:37:36.957Z,77.00
2023-02-12T11:40:04.597Z,77.58
2023-02-12T11:42:35.547Z,76.52
2023-02-12T11:45:02.936Z,76.70
2023-02-12T11:47:32.254Z,75.66
2023-02-12T11:50:06.760Z,75.00
2023-02-12T11:52:35.460Z,75.92
2023-02-12T11:55:04.489Z,75.40
2023-02-12T11:57:34.964Z,75.33
2023-02-12T12:00:02.865Z,76.34
2023-02-12T12:02:38.379Z,75.85
2023-02-12T12:05:08.163Z,75.84
2023-02-12T12:07:37.142Z,75.51
2023-02-12T12:10:07.697Z,75.33
2023-02-12T12:12:40.738Z,74.76
2023-02-12T12:15:19.246Z,74.98
2023-02-12T12:17:52.596Z,76.15
2023-02-12T12:20:22.891Z,75.81
2023-02-12T12:22:54.675Z,75.97
2023-02-12T12:25:24.618Z,76.67
2023-02-12T12:27:57.573Z,76.55
2023-02-12T12:30:39.587Z,76.32
2023-02-12T12:33:15.396Z,76.62
2023-02-12T12:35:45.318Z,76.67
2023-02-12T12:38:15.193Z,76.28
2023-02-12T12:40:45.758Z,75.98
2023-02-12T12:43:25.092Z,75.66
2023-02-12T12:45:52.302Z,76.95
2023-02-12T12:48:22.191Z,76.34
2023-02-12T12:50:52.288Z,76.52
2023-02-12T12:53:22.212Z,76.71
2023-02-12T12:55:52.432Z,77.21
2023-02-12T12:58:19.513Z,76.96
2023-02-12T13:00:50.884Z,79.24
2023-02-12T13:03:20.979Z,79.08
2023-02-12T13:05:50.598Z,77.94
2023-02-12T13:08:19.069Z,79.00
2023-02-12T13:10:50.965Z,78.93
2023-02-12T13:13:26.527Z,78.61
2023-02-12T13:15:56.578Z,79.07
2023-02-12T13:18:24.951Z,78.53
2023-02-12T13:20:57.950Z,78.65
2023-02-12T13:23:26.023Z,78.37
2023-02-12T13:26:00.886Z,78.92
2023-02-12T13:28:30.820Z,79.03
2023-02-12T13:30:59.128Z,79.09
2023-02-12T13:33:29.553Z,80.20
2023-02-12T13:35:59.466Z,79.98
2023-02-12T13:38:33.278Z,78.90
2023-02-12T13:41:03.203Z,78.98
2023-02-12T13:43:30.442Z,78.90
2023-02-12T13:46:03.364Z,78.58
2023-02-12T13:48:33.775Z,78.98
2023-02-12T13:51:03.615Z,78.59
2023-02-12T13:53:44.091Z,78.67
2023-02-12T13:56:14.716Z,78.76
2023-02-12T13:58:47.594Z,78.22
2023-02-12T14:01:34.502Z,79.09
2023-02-12T14:04:04.839Z,78.41
2023-02-12T14:06:35.417Z,77.83
2023-02-12T14:09:05.180Z,77.52
2023-02-12T14:11:32.185Z,77.08
2023-02-12T14:14:01.903Z,77.25
2023-02-12T14:16:30.132Z,77.35
2023-02-12T14:19:00.029Z,78.48
2023-02-12T14:21:28.214Z,78.17
2023-02-12T14:23:55.105Z,77.56
2023-02-12T14:26:23.777Z,77.79
2023-02-12T14:28:51.050Z,78.21
2023-02-12T14:31:18.436Z,78.43
2023-02-12T14:33:46.237Z,78.52
2023-02-12T14:36:14.741Z,78.83
2023-02-12T14:38:47.534Z,79.02
2023-02-12T14:41:19.882Z,78.80
2023-02-12T14:43:49.731Z,78.44
2023-02-12T14:46:22.970Z,79.15
2023-02-12T14:48:52.947Z,78.92
2023-02-12T14:51:27.976Z,78.47
2023-02-12T14:53:56.187Z,78.50
2023-02-12T14:56:23.830Z,78.41
2023-02-12T14:58:52.177Z,77.96
2023-02-12T15:01:25.379Z,78.73
2023-02-12T15:03:54.838Z,78.16
2023-02-12T15:06:24.252Z,77.86
2023-02-12T15:08:51.519Z,77.57
2023-02-12T15:11:21.807Z,77.65
2023-02-12T15:13:53.769Z,77.81
2023-02-12T15:16:26.694Z,77.73
2023-02-12T15:18:56.644Z,76.89
2023-02-12T15:21:25.367Z,77.29
2023-02-12T15:23:58.026Z,77.26
2023-02-12T15:26:26.260Z,77.05
2023-02-12T15:28:53.624Z,77.25
2023-02-12T15:31:22.937Z,77.90
2023-02-12T15:33:54.766Z,77.59
2023-02-12T15:36:22.689Z,78.12
2023-02-12T15:38:51.621Z,79.10
2023-02-12T15:41:21.451Z,79.45
2023-02-12T15:43:48.528Z,78.98
2023-02-12T15:46:16.557Z,78.41
2023-02-12T15:48:46.650Z,79.18
2023-02-12T15:51:15.411Z,78.35
2023-02-12T15:53:42.588Z,78.75
2023-02-12T15:56:14.475Z,78.64
2023-02-12T15:58:41.623Z,78.86
2023-02-12T16:01:08.828Z,78.69
2023-02-12T16:03:37.147Z,78.91
2023-02-12T16:06:11.348Z,78.98
2023-02-12T16:08:39.161Z,78.94
2023-02-12T16:11:14.197Z,78.87
2023-02-12T16:13:44.433Z,79.19
2023-02-12T16:16:12.549Z,78.41
2023-02-12T16:18:40.481Z,78.55
2023-02-12T16:21:10.376Z,78.44
2023-02-12T16:23:37.820Z,77.84
2023-02-12T16:26:04.924Z,78.49
2023-02-12T16:28:34.989Z,79.23
2023-02-12T16:31:05.226Z,78.83
2023-02-12T16:33:35.609Z,78.77
2023-02-12T16:36:06.980Z,79.11
2023-02-12T16:38:36.946Z,79.66
2023-02-12T16:41:12.464Z,81.12
2023-02-12T16:43:41.695Z,80.99
2023-02-12T16:46:09.066Z,80.67
2023-02-12T16:48:38.214Z,80.83
2023-02-12T16:51:06.488Z,81.43
2023-02-12T16:53:35.651Z,81.09
2023-02-12T16:56:04.467Z,82.04
2023-02-12T16:58:32.132Z,82.61
2023-02-12T17:01:01.795Z,82.95
2023-02-12T17:03:28.740Z,83.50
2023-02-12T17:05:59.035Z,83.67
2023-02-12T17:08:26.369Z,83.63
2023-02-12T17:10:53.434Z,82.71
2023-02-12T17:13:23.663Z,83.41
2023-02-12T17:15:53.499Z,82.33
2023-02-12T17:18:20.815Z,82.72
2023-02-12T17:20:49.570Z,82.72
2023-02-12T17:23:16.680Z,82.10
2023-02-12T17:25:43.577Z,82.36
2023-02-12T17:28:10.893Z,82.20
2023-02-12T17:30:44.001Z,81.30
2023-02-12T17:33:10.889Z,81.03
2023-02-12T17:35:40.933Z,79.67
2023-02-12T17:38:07.954Z,78.89
2023-02-12T17:40:36.111Z,78.93
2023-02-12T17:43:03.528Z,79.18
2023-02-12T17:45:30.478Z,79.71
2023-02-12T17:47:57.700Z,79.49
2023-02-12T17:50:24.484Z,80.07
2023-02-12T17:52:51.691Z,79.55
2023-02-12T17:55:18.672Z,79.57
2023-02-12T17:57:45.649Z,79.34
2023-02-12T18:00:13.342Z,79.05
2023-02-12T18:02:40.410Z,79.45
2023-02-12T18:05:07.709Z,79.84
2023-02-12T18:07:37.022Z,79.80
2023-02-12T18:10:05.421Z,80.27
2023-02-12T18:12:33.196Z,81.26
2023-02-12T18:15:00.943Z,80.99
2023-02-12T18:17:28.556Z,81.85
2023-02-12T18:19:55.450Z,81.25
2023-02-12T18:22:22.875Z,81.63
2023-02-12T18:24:49.995Z,81.94
2023-02-12T18:27:19.830Z,81.38
2023-02-12T18:29:46.857Z,82.30
2023-02-12T18:32:16.671Z,83.37
2023-02-12T18:34:44.057Z,83.38
2023-02-12T18:37:12.680Z,83.52
2023-02-12T18:39:39.615Z,83.69
2023-02-12T18:42:06.767Z,83.70
2023-02-12T18:44:33.552Z,82.83
2023-02-12T18:47:00.469Z,83.05
2023-02-12T18:49:27.910Z,82.59
2023-02-12T18:51:55.112Z,82.76
2023-02-12T18:54:22.366Z,81.02
2023-02-12T18:56:51.070Z,80.26
2023-02-12T18:59:18.612Z,80.28
2023-02-12T19:01:46.641Z,80.28
2023-02-12T19:04:14.266Z,79.65
2023-02-12T19:06:42.602Z,79.10
2023-02-12T19:09:09.783Z,79.16
2023-02-12T19:11:37.441Z,79.12
2023-02-12T19:14:04.232Z,77.71
2023-02-12T19:16:32.783Z,77.12
2023-02-12T19:19:01.619Z,75.10
2023-02-12T19:21:29.025Z,74.69
2023-02-12T19:23:56.650Z,74.79
2023-02-12T19:26:24.028Z,75.36
2023-02-12T19:28:50.832Z,75.71
2023-02-12T19:31:19.644Z,75.76
2023-02-12T19:33:47.130Z,75.81
2023-02-12T19:36:15.416Z,75.51
2023-02-12T19:38:42.451Z,76.83
2023-02-12T19:41:10.848Z,76.53
2023-02-12T19:43:41.104Z,76.92
2023-02-12T19:46:09.749Z,77.19
2023-02-12T19:48:36.989Z,77.27
2023-02-12T19:51:03.942Z,77.44
2023-02-12T19:53:30.791Z,79.58
2023-02-12T19:56:01.152Z,80.99
2023-02-12T19:58:28.216Z,79.58
2023-02-12T20:00:55.432Z,79.07
2023-02-12T20:03:23.716Z,79.23
2023-02-12T20:05:53.295Z,78.35
2023-02-12T20:08:20.661Z,77.59
2023-02-12T20:10:47.410Z,77.34
2023-02-12T20:13:14.281Z,76.87
2023-02-12T20:15:41.091Z,76.86
2023-02-12T20:18:08.376Z,77.34
2023-02-12T20:20:35.483Z,76.48
2023-02-12T20:23:02.362Z,76.96
2023-02-12T20:25:30.288Z,76.71
2023-02-12T20:27:57.594Z,76.42
2023-02-12T20:30:24.971Z,76.54
2023-02-12T20:32:53.122Z,76.61
2023-02-12T20:35:19.872Z,76.51
2023-02-12T20:37:49.102Z,77.15
2023-02-12T20:40:15.914Z,77.32
2023-02-12T20:42:42.780Z,77.34
2023-02-12T20:45:09.514Z,77.98
2023-02-12T20:47:38.743Z,77.04
2023-02-12T20:50:06.689Z,76.75
2023-02-12T20:52:33.650Z,77.39
2023-02-12T20:55:00.688Z,77.20
2023-02-12T20:57:27.968Z,77.68
2023-02-12T20:59:54.749Z,78.23
2023-02-12T21:02:22.380Z,78.42
2023-02-12T21:04:50.354Z,78.02
2023-02-12T21:07:17.189Z,79.30
2023-02-12T21:09:43.966Z,78.87
2023-02-12T21:12:13.881Z,78.72
2023-02-12T21:14:43.836Z,78.49
2023-02-12T21:17:13.688Z,78.81
2023-02-12T21:19:40.553Z,77.32
2023-02-12T21:22:07.320Z,77.90
2023-02-12T21:24:34.173Z,77.71
2023-02-12T21:27:01.014Z,77.14
2023-02-12T21:29:29.467Z,76.96
2023-02-12T21:31:56.624Z,77.30
2023-02-12T21:34:23.790Z,76.92
2023-02-12T21:36:51.476Z,75.92
2023-02-12T21:39:25.519Z,76.19
2023-02-12T21:41:53.673Z,76.47
2023-02-12T21:44:21.584Z,76.05
2023-02-12T21:46:51.526Z,75.42
2023-02-12T21:49:24.867Z,75.43
2023-02-12T21:51:53.115Z,75.37
2023-02-12T21:54:22.987Z,75.43
2023-02-12T21:56:50.476Z,76.09
2023-02-12T21:59:17.737Z,75.70
2023-02-12T22:01:50.109Z,75.66
2023-02-12T22:04:17.362Z,75.56
2023-02-12T22:06:46.228Z,75.62
2023-02-12T22:09:14.505Z,75.96
2023-02-12T22:11:42.161Z,76.17
2023-02-12T22:14:11.616Z,76.87
2023-02-12T22:16:38.787Z,76.75
2023-02-12T22:19:06.273Z,77.22
2023-02-12T22:21:34.666Z,76.85
2023-02-12T22:24:02.728Z,77.46
2023-02-12T22:26:31.167Z,77.86
2023-02-12T22:29:00.567Z,78.09
2023-02-12T22:31:29.736Z,76.71
2023-02-12T22:33:58.095Z,76.69
2023-02-12T22:36:25.879Z,77.08
2023-02-12T22:38:53.815Z,76.29
2023-02-12T22:41:20.963Z,76.76
2023-02-12T22:43:48.399Z,76.02
2023-02-12T22:46:16.429Z,77.45
2023-02-12T22:48:43.369Z,76.39
2023-02-12T22:51:13.387Z,76.10
2023-02-12T22:53:40.335Z,76.85
2023-02-12T22:56:07.857Z,75.99
2023-02-12T22:58:35.288Z,76.60
2023-02-12T23:01:05.702Z,75.16
2023-02-12T23:03:33.045Z,74.61
2023-02-12T23:06:03.097Z,74.64
2023-02-12T23:08:30.032Z,75.70
2023-02-12T23:10:57.225Z,75.91
2023-02-12T23:13:29.602Z,76.06
2023-02-12T23:15:57.449Z,75.79
2023-02-12T23:18:24.576Z,75.50
2023-02-12T23:20:52.083Z,75.68
2023-02-12T23:23:19.682Z,76.35
2023-02-12T23:25:46.576Z,77.29
2023-02-12T23:28:13.627Z,76.42
2023-02-12T23:30:40.768Z,76.78
2023-02-12T23:33:07.697Z,77.16
2023-02-12T23:35:34.581Z,76.42
2023-02-12T23:38:01.553Z,77.14
2023-02-12T23:40:28.459Z,77.89
2023-02-12T23:42:55.427Z,77.10
2023-02-12T23:45:22.346Z,76.93
2023-02-12T23:47:49.435Z,77.57
2023-02-12T23:50:16.501Z,78.06
2023-02-12T23:52:43.482Z,78.53
2023-02-12T23:55:10.390Z,78.45
2023-02-12T23:57:37.201Z,78.97
